Hauptseite
METAR-TAF:

METAR-TAF

Flughäfen :

Fliegerhorst Ingolstadt/Manching

Ingolstadt, Deutschland

Breite: 48-43N, Länge: 011-32E, Höhe: 367 m

Beobachtung

Neuester Wetterbericht von vor 1 Stunde und 2 Minuten, um 07:20 UTC
Wind 2 kt aus Ost/Südost
Temperatur 18°C
Luftfeuchtigkeit 59%
Luftdruck 1013 hPa
Sichtweite 10 km oder mehr
Leicht bewölkt in der Höhe von 12000 ft
Durchbrochene Bewölkung in der Höhe von 28000 ft

METAR: ETSI 220720Z 11002KT 9999 FEW120 BKN280 18/10 Q1013 BLU+BLU+

Zeit: 10:22 (08:22 UTC)

Prognose

Neuester Wetterbericht von vor 1 Stunde und 11 Minuten, um 07:11 UTC
Gültige Prognose vom 22 um 08 UTC bis 22 um 17 UTC
Wind 5 kt aus Ost/Nordost
Sichtweite 10 km oder mehr
Leicht bewölkt in der Höhe von 5000 ft
Durchbrochene Bewölkung in der Höhe von 28000 ft

TAF: ETSI 220711Z 2208/2217 07005KT 9999 NSW FEW050 BKN280

Wetterbeobachtungen und Prognosen von mehr als 4000 Flughäfen (METAR und TAF Bericht).

Die verfügbaren Stationen werden durch gelbe und rote Markierungen auf der Karte dargestellt.

Führen Sie die Maus auf sie, um den Namen der Station zu sehen.

Darauf klicken, um die Beobachtung von Wetterbeobachtungen und Prognosen zu sehen.

Um die Karte zu ändern : klicken Sie auf den grünen Tasten mit einem schwarzen Kreuz Zum Vergrößern, auf den grünen Button mit einem Gedankenstrich zu verkleinern, oder auf die grünen Pfeile für benachbarte Karten.


METAR-TAF: